Time;durP1;ratioP1;P1;durP2;ratioP2;P2;SDS_P1;SDS_P2;PMS_P1;PMS_P2;Temp;Humidity;BMP_temperature;BMP_pressure;BME280_temperature;BME280_humidity;BME280_pressure;Samples;Min_cycle;Max_cycle;Signal;HPM_P1;HPM_P2
2021/04/25 00:00:52;;;;;;;15.20;7.85;;;9.50;63.80;;;;;;5035493;28;20017;-73
2021/04/25 00:03:18;;;;;;;14.90;8.07;;;9.40;64.90;;;;;;5034199;28;20499;-73
2021/04/25 00:05:43;;;;;;;13.23;8.70;;;9.30;65.50;;;;;;5035140;28;20060;-73
2021/04/25 00:08:09;;;;;;;16.55;9.10;;;9.30;65.40;;;;;;5034104;28;20028;-73
2021/04/25 00:10:35;;;;;;;17.35;8.32;;;9.30;65.60;;;;;;5034054;28;20493;-73
2021/04/25 00:13:01;;;;;;;12.02;7.55;;;9.70;64.40;;;;;;5050497;28;20025;-73
2021/04/25 00:15:28;;;;;;;12.50;8.35;;;10.00;62.80;;;;;;5033671;28;20029;-73
2021/04/25 00:17:53;;;;;;;14.32;8.35;;;10.10;61.50;;;;;;5035148;28;20045;-73
2021/04/25 00:20:21;;;;;;;21.13;8.23;;;10.10;61.00;;;;;;5035067;28;20022;-74
2021/04/25 00:22:48;;;;;;;15.30;8.45;;;10.20;61.20;;;;;;5035024;28;20030;-73
2021/04/25 00:25:15;;;;;;;17.00;8.48;;;10.30;60.20;;;;;;5033655;28;20033;-72
2021/04/25 00:27:44;;;;;;;17.38;7.85;;;10.30;59.90;;;;;;5034882;28;20477;-73
2021/04/25 00:30:13;;;;;;;13.27;8.40;;;10.40;59.70;;;;;;5034896;28;20021;-73
2021/04/25 00:32:39;;;;;;;17.15;8.60;;;10.50;59.70;;;;;;5033505;28;20030;-73
2021/04/25 00:35:06;;;;;;;15.05;7.70;;;10.40;59.40;;;;;;5034711;28;20531;-73
2021/04/25 00:37:32;;;;;;;18.48;8.40;;;10.10;60.40;;;;;;5033358;28;20063;-73
2021/04/25 00:39:58;;;;;;;14.27;8.93;;;9.70;61.50;;;;;;5034686;28;20432;-73
2021/04/25 00:42:24;;;;;;;17.80;9.10;;;9.50;63.00;;;;;;5035002;28;20544;-74
2021/04/25 00:44:51;;;;;;;16.25;8.95;;;9.50;63.40;;;;;;5034587;28;20053;-73
2021/04/25 00:47:16;;;;;;;13.52;8.45;;;9.70;63.30;;;;;;5032789;28;20032;-73
2021/04/25 00:49:42;;;;;;;14.93;8.18;;;9.70;62.80;;;;;;5035063;28;20428;-73
2021/04/25 00:52:09;;;;;;;13.98;7.70;;;9.80;62.50;;;;;;5033804;28;20025;-73
2021/04/25 00:54:37;;;;;;;11.50;7.50;;;9.70;62.00;;;;;;5033178;28;20037;-73
2021/04/25 00:57:03;;;;;;;16.45;7.57;;;9.40;63.10;;;;;;5049720;28;20021;-73
2021/04/25 00:59:29;;;;;;;14.77;7.93;;;9.30;64.00;;;;;;5033230;28;20029;-73
2021/04/25 01:01:56;;;;;;;17.13;8.02;;;9.20;64.40;;;;;;5049817;28;20025;-73
2021/04/25 01:04:21;;;;;;;15.95;8.15;;;9.00;64.40;;;;;;5034171;28;20021;-72
2021/04/25 01:06:47;;;;;;;13.23;7.75;;;8.90;64.00;;;;;;5032997;28;20447;-73
2021/04/25 01:09:13;;;;;;;12.88;7.65;;;8.70;64.50;;;;;;5034150;28;20037;-73
2021/04/25 01:11:40;;;;;;;12.90;6.85;;;8.70;65.10;;;;;;5032949;28;20468;-72
2021/04/25 01:14:05;;;;;;;19.38;9.55;;;8.80;65.10;;;;;;5032921;28;20455;-73
2021/04/25 01:16:31;;;;;;;12.13;6.72;;;8.80;65.40;;;;;;5049173;28;20025;-73
2021/04/25 01:18:57;;;;;;;9.85;6.22;;;9.20;64.90;;;;;;5033963;28;20029;-73
2021/04/25 01:21:23;;;;;;;16.33;7.13;;;9.30;63.70;;;;;;5032760;28;20026;-73
2021/04/25 01:23:49;;;;;;;9.90;6.57;;;9.10;63.40;;;;;;5034002;28;20047;-73
2021/04/25 01:26:15;;;;;;;14.40;7.07;;;8.80;64.70;;;;;;5049218;28;20022;-73
2021/04/25 01:28:41;;;;;;;11.50;6.30;;;8.50;65.70;;;;;;5032792;28;20025;-73
2021/04/25 01:31:08;;;;;;;17.70;7.18;;;8.60;66.40;;;;;;5033789;28;20471;-73
2021/04/25 01:33:35;;;;;;;16.05;8.00;;;8.50;65.40;;;;;;5049082;28;20057;-73
2021/04/25 01:36:03;;;;;;;17.13;7.72;;;8.30;65.90;;;;;;5033432;28;20045;-73
2021/04/25 01:38:29;;;;;;;14.93;8.00;;;8.50;66.10;;;;;;5033606;28;20469;-73
2021/04/25 01:40:54;;;;;;;12.75;6.88;;;8.90;65.00;;;;;;5033905;28;20029;-73
2021/04/25 01:43:20;;;;;;;11.27;6.82;;;9.40;64.10;;;;;;5048915;28;20437;-73
2021/04/25 01:45:46;;;;;;;12.75;7.20;;;9.40;62.30;;;;;;5031985;28;20048;-73
2021/04/25 01:48:12;;;;;;;12.80;6.93;;;9.20;62.90;;;;;;5033417;28;20037;-73
2021/04/25 01:50:38;;;;;;;19.50;7.55;;;9.20;63.10;;;;;;5033493;28;20386;-73
2021/04/25 01:53:05;;;;;;;15.77;7.10;;;9.20;63.30;;;;;;5033460;28;20104;-73
2021/04/25 01:55:33;;;;;;;10.95;6.93;;;9.20;63.50;;;;;;5031867;28;20022;-73
2021/04/25 01:57:59;;;;;;;14.80;6.95;;;9.40;63.10;;;;;;5048083;28;20047;-73
2021/04/25 02:00:40;;;;;;;13.70;6.63;;;9.60;62.00;;;;;;5032754;28;20022;-73
2021/04/25 02:03:07;;;;;;;13.05;6.88;;;9.50;61.40;;;;;;5031939;28;20081;-73
2021/04/25 02:05:33;;;;;;;10.30;6.53;;;9.40;62.30;;;;;;5033004;28;20072;-73
2021/04/25 02:07:59;;;;;;;11.18;6.10;;;9.20;63.30;;;;;;5032997;28;20026;-73
2021/04/25 02:10:25;;;;;;;11.75;6.45;;;9.10;63.80;;;;;;5015249;28;20518;-73
2021/04/25 02:12:53;;;;;;;10.25;6.40;;;9.30;62.90;;;;;;5048384;28;20110;-73
2021/04/25 02:15:19;;;;;;;10.45;6.25;;;9.30;62.40;;;;;;5031461;28;20025;-73
2021/04/25 02:17:45;;;;;;;13.70;6.32;;;8.80;63.70;;;;;;5032763;28;20021;-73
2021/04/25 02:20:13;;;;;;;11.63;6.10;;;8.10;66.50;;;;;;5032695;28;20033;-73
2021/04/25 02:22:39;;;;;;;11.93;6.15;;;7.60;68.10;;;;;;5031451;28;20362;-73
2021/04/25 02:25:07;;;;;;;9.40;5.93;;;7.50;69.10;;;;;;5031290;28;20032;-73
2021/04/25 02:27:33;;;;;;;10.57;6.22;;;7.60;70.10;;;;;;5032690;28;20045;-73
2021/04/25 02:29:59;;;;;;;7.75;5.40;;;7.70;69.60;;;;;;5031360;28;20026;-73
2021/04/25 02:32:25;;;;;;;14.50;8.15;;;7.80;69.20;;;;;;5032582;28;20087;-73
2021/04/25 02:34:50;;;;;;;9.73;5.20;;;7.80;69.30;;;;;;5047986;28;20381;-73
2021/04/25 02:37:17;;;;;;;12.85;7.28;;;8.00;69.10;;;;;;5032489;28;20047;-73
2021/04/25 02:39:43;;;;;;;11.35;6.57;;;8.00;68.40;;;;;;5031488;28;20078;-73
2021/04/25 02:42:09;;;;;;;11.07;6.80;;;8.10;68.20;;;;;;5031243;28;20030;-73
2021/04/25 02:44:35;;;;;;;14.05;6.43;;;8.00;68.20;;;;;;5031226;28;20033;-73
2021/04/25 02:47:01;;;;;;;9.10;6.28;;;8.10;68.10;;;;;;5031044;28;20474;-73
2021/04/25 02:49:26;;;;;;;9.38;5.30;;;7.90;68.30;;;;;;5031281;28;20061;-73
2021/04/25 02:51:52;;;;;;;10.35;5.25;;;7.90;68.50;;;;;;5031061;28;20029;-73
2021/04/25 02:54:19;;;;;;;12.15;5.78;;;7.80;68.50;;;;;;5047674;28;20037;-74
2021/04/25 02:56:45;;;;;;;14.95;7.18;;;7.60;69.30;;;;;;5030959;28;20025;-74
2021/04/25 02:59:11;;;;;;;10.45;6.30;;;7.50;70.20;;;;;;5032471;28;20079;-74
2021/04/25 03:01:36;;;;;;;11.93;6.03;;;7.60;69.90;;;;;;5032344;28;20064;-74
2021/04/25 03:04:02;;;;;;;12.80;5.97;;;7.60;69.70;;;;;;5047706;28;20030;-74
2021/04/25 03:06:28;;;;;;;10.18;5.60;;;7.70;69.50;;;;;;5031977;28;20374;-74
2021/04/25 03:08:54;;;;;;;14.27;6.32;;;7.80;69.30;;;;;;5030962;28;20057;-74
2021/04/25 03:11:20;;;;;;;13.07;6.70;;;7.70;69.00;;;;;;5032028;28;20045;-74
2021/04/25 03:13:46;;;;;;;12.27;6.85;;;7.80;68.90;;;;;;5032178;28;20115;-74
2021/04/25 03:16:11;;;;;;;12.77;7.32;;;7.70;68.90;;;;;;5030519;28;20061;-74
2021/04/25 03:18:37;;;;;;;11.65;6.05;;;7.50;69.30;;;;;;5032178;28;20551;-74
2021/04/25 03:21:03;;;;;;;14.00;7.60;;;7.30;70.40;;;;;;5030660;28;20055;-74
2021/04/25 03:23:28;;;;;;;13.85;7.82;;;7.10;70.90;;;;;;5030985;28;20028;-74
2021/04/25 03:25:54;;;;;;;13.63;6.53;;;7.10;70.80;;;;;;5031897;28;20029;-74
2021/04/25 03:28:20;;;;;;;17.48;7.20;;;7.00;71.50;;;;;;5031877;28;20025;-74
2021/04/25 03:30:46;;;;;;;13.23;7.35;;;7.00;72.20;;;;;;5031957;28;20034;-74
2021/04/25 03:33:12;;;;;;;17.80;8.30;;;7.20;71.60;;;;;;5032133;28;20136;-74
2021/04/25 03:35:38;;;;;;;11.10;6.88;;;7.30;71.20;;;;;;5030405;28;20116;-74
2021/04/25 03:38:04;;;;;;;14.10;8.10;;;7.50;70.30;;;;;;5031883;28;20063;-74
2021/04/25 03:40:30;;;;;;;15.68;8.18;;;7.40;70.20;;;;;;5030655;28;20022;-74
2021/04/25 03:42:56;;;;;;;12.95;8.05;;;7.60;69.70;;;;;;5030632;28;20022;-73
2021/04/25 03:45:21;;;;;;;16.50;8.35;;;7.60;69.40;;;;;;5032173;28;20056;-74
2021/04/25 03:47:50;;;;;;;14.80;8.05;;;7.60;69.70;;;;;;5031839;28;20061;-74
2021/04/25 03:50:18;;;;;;;15.50;8.40;;;7.70;68.90;;;;;;5047147;28;20447;-74
2021/04/25 03:52:45;;;;;;;17.48;7.97;;;7.70;68.80;;;;;;5030510;28;20445;-74
2021/04/25 03:55:12;;;;;;;17.13;8.32;;;7.80;68.60;;;;;;5047028;28;20025;-74
2021/04/25 03:57:38;;;;;;;18.75;8.10;;;7.80;67.90;;;;;;5031616;28;20026;-74
2021/04/25 04:00:07;;;;;;;25.35;8.32;;;7.90;68.40;;;;;;5031642;28;20040;-74
2021/04/25 04:02:33;;;;;;;25.17;11.38;;;8.10;68.00;;;;;;5030552;28;20025;-74
2021/04/25 04:04:59;;;;;;;32.78;22.45;;;8.10;67.80;;;;;;5030410;28;20061;-74
2021/04/25 04:07:25;;;;;;;17.83;9.35;;;7.90;68.50;;;;;;5031456;28;20168;-74
2021/04/25 04:09:52;;;;;;;16.77;8.90;;;7.70;68.80;;;;;;5030269;28;20539;-74
2021/04/25 04:12:18;;;;;;;16.67;8.55;;;7.70;69.50;;;;;;5047043;28;20037;-74
2021/04/25 04:14:44;;;;;;;21.50;7.75;;;7.70;69.40;;;;;;5030099;28;20032;-74
2021/04/25 04:17:10;;;;;;;15.35;7.45;;;7.50;69.70;;;;;;5031402;28;20096;-74
2021/04/25 04:19:36;;;;;;;14.48;7.28;;;7.50;69.60;;;;;;5030353;28;20045;-74
2021/04/25 04:22:02;;;;;;;15.27;7.68;;;7.30;69.50;;;;;;5032538;28;20470;-74
2021/04/25 04:24:28;;;;;;;19.30;7.25;;;7.20;70.30;;;;;;5050491;28;20038;-74
2021/04/25 04:26:54;;;;;;;13.85;6.95;;;7.30;70.50;;;;;;5033598;28;20026;-74
2021/04/25 04:29:19;;;;;;;13.57;6.95;;;7.20;70.90;;;;;;5033969;28;20029;-74
2021/04/25 04:31:45;;;;;;;13.35;7.00;;;7.40;70.20;;;;;;5035056;28;20120;-74
2021/04/25 04:34:11;;;;;;;15.50;8.13;;;7.40;69.90;;;;;;5033541;28;20022;-74
2021/04/25 04:36:36;;;;;;;13.65;7.60;;;7.40;69.80;;;;;;5034915;28;20032;-74
2021/04/25 04:39:03;;;;;;;18.20;7.40;;;7.50;69.00;;;;;;5033596;28;20024;-74
2021/04/25 04:41:29;;;;;;;15.07;8.35;;;7.50;69.80;;;;;;5033726;28;20424;-74
2021/04/25 04:43:55;;;;;;;16.60;7.78;;;7.40;69.40;;;;;;5034795;28;20026;-74
2021/04/25 04:46:21;;;;;;;18.15;9.32;;;7.40;70.00;;;;;;5034681;28;20112;-74
2021/04/25 04:48:47;;;;;;;11.55;7.88;;;7.30;70.10;;;;;;5034929;28;20026;-74
2021/04/25 04:51:13;;;;;;;22.38;8.10;;;7.10;71.10;;;;;;5034614;28;20101;-74
2021/04/25 04:53:39;;;;;;;14.48;7.88;;;7.00;71.40;;;;;;5016990;28;20047;-74
2021/04/25 04:56:05;;;;;;;11.93;7.00;;;7.00;72.00;;;;;;5034403;28;20026;-73
2021/04/25 04:58:30;;;;;;;16.63;7.20;;;6.90;72.00;;;;;;5034367;28;20331;-74
2021/04/25 05:00:56;;;;;;;11.20;7.38;;;6.80;72.80;;;;;;5034491;28;20056;-73
2021/04/25 05:03:22;;;;;;;17.52;7.60;;;6.90;73.30;;;;;;5034424;28;20120;-74
2021/04/25 05:05:47;;;;;;;14.18;6.32;;;6.90;72.70;;;;;;5032775;28;20128;-74
2021/04/25 05:08:13;;;;;;;16.67;7.22;;;6.80;73.20;;;;;;5034449;28;20028;-74
2021/04/25 05:10:39;;;;;;;23.35;8.05;;;6.90;73.70;;;;;;5033058;28;20025;-74
2021/04/25 05:13:09;;;;;;;9.90;6.43;;;7.10;73.00;;;;;;5034224;28;20026;-74
2021/04/25 05:15:37;;;;;;;13.77;7.07;;;7.30;72.60;;;;;;5032726;28;20036;-74
2021/04/25 05:18:03;;;;;;;18.42;7.07;;;7.30;72.70;;;;;;5034253;28;20025;-74
2021/04/25 05:20:28;;;;;;;13.77;7.20;;;7.40;72.10;;;;;;5034547;28;20489;-74
2021/04/25 05:22:56;;;;;;;16.73;7.45;;;7.50;72.20;;;;;;5032875;28;20025;-74
2021/04/25 05:25:22;;;;;;;12.05;7.53;;;7.70;71.50;;;;;;5034023;28;20021;-74
2021/04/25 05:27:48;;;;;;;12.52;7.07;;;8.00;69.80;;;;;;5049254;28;20385;-74
2021/04/25 05:30:14;;;;;;;17.38;6.80;;;8.20;68.70;;;;;;5032604;28;20565;-74
2021/04/25 05:32:40;;;;;;;17.73;6.82;;;8.00;68.30;;;;;;5033947;28;20108;-74
2021/04/25 05:35:06;;;;;;;12.05;7.72;;;8.00;68.70;;;;;;5015903;28;20112;-74
2021/04/25 05:37:32;;;;;;;12.45;6.55;;;8.10;68.80;;;;;;5032340;28;20032;-74
2021/04/25 05:39:58;;;;;;;15.52;6.95;;;8.20;68.90;;;;;;5033829;28;20026;-73
2021/04/25 05:42:24;;;;;;;12.70;5.45;;;8.30;68.70;;;;;;5032358;28;20079;-74
2021/04/25 05:44:51;;;;;;;15.05;6.82;;;8.30;68.50;;;;;;5032407;28;20466;-74
2021/04/25 05:47:17;;;;;;;11.82;6.65;;;8.50;68.50;;;;;;5033547;28;20036;-74
2021/04/25 05:49:43;;;;;;;12.75;6.88;;;8.40;67.80;;;;;;5032228;28;20461;-73
2021/04/25 05:52:09;;;;;;;13.55;7.47;;;8.40;68.20;;;;;;5032289;28;20036;-74
2021/04/25 05:54:35;;;;;;;15.80;8.45;;;8.60;67.90;;;;;;5033314;28;20021;-74
2021/04/25 05:57:01;;;;;;;19.52;10.05;;;8.80;67.90;;;;;;5048714;28;20021;-75
2021/04/25 05:59:26;;;;;;;26.55;13.35;;;8.80;68.40;;;;;;5033587;28;20072;-74
2021/04/25 06:01:52;;;;;;;24.33;12.32;;;8.80;67.90;;;;;;5032180;28;20098;-74
2021/04/25 06:04:18;;;;;;;21.92;13.80;;;8.80;68.20;;;;;;5015507;28;20560;-74
2021/04/25 06:06:45;;;;;;;23.70;13.50;;;8.70;69.00;;;;;;5031996;28;20034;-74
2021/04/25 06:09:11;;;;;;;33.22;15.23;;;8.80;69.10;;;;;;5032029;28;20051;-74
2021/04/25 06:11:37;;;;;;;26.05;15.15;;;8.90;69.00;;;;;;5031826;28;20025;-74
2021/04/25 06:14:05;;;;;;;32.53;15.45;;;9.10;68.80;;;;;;5033149;28;20022;-74
2021/04/25 06:16:31;;;;;;;26.00;13.05;;;9.40;68.00;;;;;;5015094;28;20029;-74
2021/04/25 06:18:57;;;;;;;22.17;12.93;;;9.20;67.30;;;;;;5033479;28;20028;-73
2021/04/25 06:21:23;;;;;;;30.58;15.25;;;9.20;68.20;;;;;;5031561;28;20026;-74
2021/04/25 06:23:48;;;;;;;29.65;15.07;;;9.10;68.70;;;;;;5031848;28;20359;-74
2021/04/25 06:26:15;;;;;;;29.27;16.27;;;9.30;68.80;;;;;;5014990;28;20030;-75
2021/04/25 06:28:40;;;;;;;28.65;15.48;;;9.40;67.90;;;;;;5032814;28;20129;-74
2021/04/25 06:31:06;;;;;;;33.88;16.73;;;9.40;67.90;;;;;;5031372;28;20061;-74
2021/04/25 06:33:32;;;;;;;28.70;14.70;;;9.40;67.90;;;;;;5032593;28;20063;-74
2021/04/25 06:35:58;;;;;;;26.52;15.90;;;9.50;68.10;;;;;;5048011;28;20029;-74
2021/04/25 06:38:23;;;;;;;20.40;14.52;;;9.80;67.30;;;;;;5032728;28;20025;-74
2021/04/25 06:40:49;;;;;;;25.20;15.00;;;9.90;66.90;;;;;;5047975;28;20054;-73
2021/04/25 06:43:16;;;;;;;23.27;14.07;;;10.00;66.50;;;;;;5032634;28;20331;-73
2021/04/25 06:45:42;;;;;;;27.25;14.65;;;10.10;66.60;;;;;;5030801;28;20091;-73
2021/04/25 06:48:07;;;;;;;32.13;14.88;;;10.20;65.30;;;;;;5032464;28;20029;-74
2021/04/25 06:50:33;;;;;;;33.00;19.55;;;10.30;66.10;;;;;;5032525;28;20026;-73
2021/04/25 06:52:59;;;;;;;29.20;14.15;;;10.60;65.70;;;;;;5031235;28;20048;-74
2021/04/25 06:55:26;;;;;;;28.48;16.48;;;10.60;64.80;;;;;;5032419;28;20036;-74
2021/04/25 06:57:52;;;;;;;25.33;15.77;;;10.90;65.00;;;;;;5031290;28;20022;-73
2021/04/25 07:00:21;;;;;;;22.50;14.80;;;11.00;64.30;;;;;;5047884;28;20036;-74
2021/04/25 07:02:47;;;;;;;23.65;14.05;;;11.10;63.30;;;;;;5031176;28;20393;-74
2021/04/25 07:05:13;;;;;;;24.13;12.93;;;11.10;63.80;;;;;;5032456;28;20033;-74
2021/04/25 07:07:40;;;;;;;22.08;13.07;;;11.10;63.30;;;;;;5031040;28;20025;-74
2021/04/25 07:10:07;;;;;;;22.25;13.40;;;11.00;63.40;;;;;;5030983;28;20056;-75
2021/04/25 07:12:33;;;;;;;23.30;13.23;;;11.10;63.60;;;;;;5032320;28;20109;-74
2021/04/25 07:14:59;;;;;;;19.85;12.40;;;11.10;63.70;;;;;;5032177;28;20104;-74
2021/04/25 07:17:25;;;;;;;21.05;12.43;;;11.20;63.50;;;;;;5047548;28;20540;-74
2021/04/25 07:19:51;;;;;;;18.63;11.50;;;11.30;63.30;;;;;;5047260;28;20032;-75
2021/04/25 07:22:17;;;;;;;23.17;12.45;;;11.40;62.40;;;;;;5047513;28;20054;-75
2021/04/25 07:24:43;;;;;;;22.52;13.57;;;11.60;61.20;;;;;;5032063;28;20497;-74
2021/04/25 07:27:08;;;;;;;23.25;12.70;;;11.80;60.50;;;;;;5030934;28;20026;-74
2021/04/25 07:29:35;;;;;;;20.92;11.57;;;11.50;60.80;;;;;;5032223;28;20361;-73
2021/04/25 07:32:00;;;;;;;23.63;12.95;;;11.50;61.60;;;;;;5014515;28;20053;-74
2021/04/25 07:34:26;;;;;;;22.75;11.98;;;11.80;61.10;;;;;;5014364;28;20069;-74
2021/04/25 07:36:53;;;;;;;25.23;12.77;;;12.10;59.90;;;;;;5031928;28;20469;-74
2021/04/25 07:39:20;;;;;;;19.92;12.18;;;12.30;59.70;;;;;;5031014;28;20432;-73
2021/04/25 07:41:46;;;;;;;28.13;12.57;;;12.40;59.20;;;;;;5030898;28;20105;-74
2021/04/25 07:44:12;;;;;;;20.27;11.07;;;12.60;58.70;;;;;;5032032;28;20025;-74
2021/04/25 07:46:38;;;;;;;26.90;12.48;;;12.80;59.00;;;;;;5031928;28;20030;-74
2021/04/25 07:49:04;;;;;;;24.23;13.13;;;13.00;58.50;;;;;;5032181;28;20389;-74
2021/04/25 07:51:30;;;;;;;24.65;12.55;;;13.20;57.90;;;;;;5030769;28;20028;-74
2021/04/25 07:53:58;;;;;;;19.63;11.85;;;13.40;57.10;;;;;;5032028;28;20021;-74
2021/04/25 07:56:23;;;;;;;22.20;11.65;;;13.30;56.10;;;;;;5030399;28;20052;-74
2021/04/25 07:58:50;;;;;;;22.20;11.55;;;13.40;56.10;;;;;;5051290;28;20017;-74
2021/04/25 08:01:15;;;;;;;25.27;12.02;;;13.50;56.20;;;;;;5051011;28;20041;-75
2021/04/25 08:03:41;;;;;;;27.55;12.77;;;13.60;56.30;;;;;;5034581;28;20456;-75
2021/04/25 08:06:07;;;;;;;25.90;13.77;;;13.60;57.10;;;;;;5034270;28;20041;-75
2021/04/25 08:08:33;;;;;;;19.80;12.27;;;13.50;58.10;;;;;;5035816;28;20025;-74
2021/04/25 08:10:59;;;;;;;19.77;11.43;;;13.90;57.10;;;;;;5035601;28;20067;-74
2021/04/25 08:13:25;;;;;;;25.17;12.88;;;13.90;56.80;;;;;;5034357;28;20021;-74
2021/04/25 08:15:51;;;;;;;17.70;12.00;;;13.90;56.90;;;;;;5035340;28;20492;-74
2021/04/25 08:18:17;;;;;;;20.15;11.50;;;14.20;57.10;;;;;;5017540;28;20025;-75
2021/04/25 08:20:42;;;;;;;24.67;13.35;;;14.40;56.30;;;;;;5017489;28;20056;-74
2021/04/25 08:23:08;;;;;;;23.20;12.25;;;14.80;55.50;;;;;;5034220;28;20033;-74
2021/04/25 08:25:34;;;;;;;26.92;11.93;;;14.80;55.60;;;;;;5050803;28;20160;-74
2021/04/25 08:28:00;;;;;;;19.88;12.40;;;15.00;54.80;;;;;;5035076;28;20038;-74
2021/04/25 08:30:26;;;;;;;25.95;12.93;;;15.50;55.30;;;;;;5017841;28;20112;-74
2021/04/25 08:32:52;;;;;;;19.15;10.60;;;15.70;52.60;;;;;;5050667;28;20052;-74
2021/04/25 08:35:19;;;;;;;17.83;10.15;;;15.70;51.70;;;;;;5033902;28;20030;-75
2021/04/25 08:37:45;;;;;;;17.27;10.23;;;15.80;49.40;;;;;;5017367;28;20034;-75
2021/04/25 08:40:12;;;;;;;19.75;9.93;;;16.00;47.70;;;;;;5034194;28;20018;-74
2021/04/25 08:42:39;;;;;;;24.73;11.10;;;16.10;47.90;;;;;;5017379;28;20374;-74
2021/04/25 08:45:05;;;;;;;22.48;11.52;;;16.00;48.70;;;;;;5035125;28;20029;-75
2021/04/25 08:47:37;;;;;;;19.90;11.25;;;16.00;47.90;;;;;;5016873;28;20029;-74
2021/04/25 08:50:04;;;;;;;15.80;10.23;;;16.10;48.50;;;;;;5034759;28;20148;-74
2021/04/25 08:52:30;;;;;;;20.70;10.07;;;16.50;47.50;;;;;;5034955;28;20112;-74
2021/04/25 08:54:58;;;;;;;20.33;9.43;;;16.50;45.40;;;;;;5034991;28;20052;-74
2021/04/25 08:57:24;;;;;;;17.85;10.65;;;16.30;46.20;;;;;;5033626;28;20117;-75
2021/04/25 08:59:49;;;;;;;18.90;10.18;;;16.60;46.80;;;;;;5033601;28;20096;-75
2021/04/25 09:02:15;;;;;;;16.02;9.10;;;17.00;46.00;;;;;;5050429;28;20022;-75
2021/04/25 09:04:41;;;;;;;22.85;9.98;;;17.50;46.30;;;;;;5033330;28;20481;-75
2021/04/25 09:07:14;;;;;;;21.88;10.48;;;17.30;44.60;;;;;;5034484;28;20064;-75
2021/04/25 09:09:49;;;;;;;17.27;9.55;;;17.20;45.70;;;;;;5033422;28;20062;-74
2021/04/25 09:12:45;;;;;;;15.32;9.73;;;17.00;45.20;;;;;;5034730;28;20053;-74
2021/04/25 09:15:25;;;;;;;16.20;9.63;;;17.00;46.30;;;;;;5034487;28;20381;-75
2021/04/25 09:17:59;;;;;;;20.50;11.05;;;17.30;45.60;;;;;;5033251;28;20025;-74
2021/04/25 09:20:45;;;;;;;20.58;10.20;;;17.70;44.80;;;;;;5034567;28;20101;-75
2021/04/25 09:23:14;;;;;;;16.75;10.00;;;18.10;44.30;;;;;;5016675;28;20044;-75
2021/04/25 09:25:55;;;;;;;26.13;10.52;;;18.30;42.90;;;;;;5016617;28;20045;-75
2021/04/25 09:28:20;;;;;;;18.00;10.77;;;18.40;43.30;;;;;;5034309;28;20087;-75
2021/04/25 09:31:00;;;;;;;16.90;9.95;;;18.20;43.60;;;;;;5032850;28;20061;-74
2021/04/25 09:33:46;;;;;;;23.08;10.35;;;18.20;43.50;;;;;;5032520;28;20296;-75
2021/04/25 09:36:14;;;;;;;20.40;10.13;;;18.10;43.90;;;;;;5032545;28;20548;-75
2021/04/25 09:38:40;;;;;;;20.23;11.07;;;18.70;42.30;;;;;;5032698;28;20075;-75
2021/04/25 09:41:05;;;;;;;22.45;11.30;;;18.70;40.40;;;;;;5049001;28;20025;-75
2021/04/25 09:43:39;;;;;;;20.50;10.52;;;18.60;40.80;;;;;;5033535;28;20014;-74
2021/04/25 09:46:05;;;;;;;18.60;10.68;;;18.80;41.60;;;;;;5032631;28;20057;-75
2021/04/25 09:48:33;;;;;;;19.20;10.82;;;19.20;39.90;;;;;;5032700;28;20033;-75
2021/04/25 09:51:08;;;;;;;17.58;10.57;;;19.20;40.00;;;;;;5032453;28;20025;-75
2021/04/25 09:53:35;;;;;;;16.08;9.82;;;19.40;40.50;;;;;;5032413;28;20025;-75
2021/04/25 09:56:01;;;;;;;21.98;10.57;;;19.60;38.60;;;;;;5032416;28;20029;-75
2021/04/25 09:58:27;;;;;;;18.45;10.80;;;19.50;38.80;;;;;;5033745;28;20018;-75
2021/04/25 10:00:54;;;;;;;18.17;11.05;;;19.50;40.20;;;;;;5049180;28;20022;-75
2021/04/25 10:03:20;;;;;;;18.02;10.93;;;19.50;40.50;;;;;;5032650;28;20026;-75
2021/04/25 10:06:06;;;;;;;18.52;10.35;;;19.50;40.30;;;;;;5033431;28;20029;-75
2021/04/25 10:08:35;;;;;;;15.93;10.75;;;19.60;38.70;;;;;;5032450;28;20029;-75
2021/04/25 10:11:05;;;;;;;19.98;11.35;;;20.10;39.30;;;;;;5032473;28;20037;-75
2021/04/25 10:13:32;;;;;;;17.13;10.23;;;20.20;38.10;;;;;;5033552;28;20021;-75
2021/04/25 10:15:58;;;;;;;18.10;10.52;;;20.30;38.60;;;;;;5033362;28;20061;-75
2021/04/25 10:18:24;;;;;;;16.80;10.73;;;20.30;37.90;;;;;;5033441;28;20030;-74
2021/04/25 10:20:55;;;;;;;18.98;12.00;;;20.50;37.80;;;;;;5014893;28;20017;-74
2021/04/25 10:23:22;;;;;;;14.55;10.32;;;20.50;37.50;;;;;;5033458;28;20479;-74
2021/04/25 10:25:49;;;;;;;16.73;10.38;;;20.70;37.40;;;;;;5032015;28;20389;-75
2021/04/25 10:28:34;;;;;;;17.88;11.48;;;20.60;37.50;;;;;;5015579;28;20022;-75
2021/04/25 10:31:11;;;;;;;26.45;13.93;;;20.50;37.80;;;;;;5031978;28;20029;-75
2021/04/25 10:34:02;;;;;;;18.23;11.13;;;20.80;37.80;;;;;;5033068;28;20083;-74
2021/04/25 10:36:51;;;;;;;17.80;11.15;;;20.70;37.90;;;;;;5032934;28;20041;-75
2021/04/25 10:39:41;;;;;;;20.33;11.88;;;20.60;37.60;;;;;;5032998;28;20026;-75
2021/04/25 10:42:33;;;;;;;14.75;10.20;;;20.90;37.20;;;;;;5031608;28;20025;-74
2021/04/25 10:45:06;;;;;;;;;;;21.20;37.50;;;;;;5032128;28;20025;-75
2021/04/25 10:47:36;;;;;;;17.90;11.30;;;21.70;36.60;;;;;;5032802;28;19991;-75
2021/04/25 10:50:22;;;;;;;20.08;12.35;;;21.50;35.60;;;;;;5032938;28;20022;-75
2021/04/25 10:52:51;;;;;;;19.65;12.35;;;21.70;36.10;;;;;;5031054;28;20045;-75
2021/04/25 10:55:20;;;;;;;18.13;11.55;;;22.00;35.60;;;;;;5032672;28;20511;-75
2021/04/25 10:57:56;;;;;;;17.85;11.75;;;22.30;35.10;;;;;;5031463;28;20033;-75
2021/04/25 11:00:41;;;;;;;18.58;11.43;;;22.30;34.60;;;;;;5031515;28;20022;-75
2021/04/25 11:03:18;;;;;;;22.38;12.15;;;21.60;35.90;;;;;;5031438;28;20032;-75
2021/04/25 11:05:49;;;;;;;17.77;12.10;;;21.70;36.00;;;;;;5051999;23;20071;-74
2021/04/25 11:08:18;;;;;;;23.58;12.02;;;21.50;35.90;;;;;;5050542;28;20421;-74
2021/04/25 11:10:50;;;;;;;23.17;11.63;;;21.00;36.80;;;;;;5051848;28;20490;-74
2021/04/25 11:13:46;;;;;;;16.42;11.80;;;21.40;37.50;;;;;;5051628;28;20075;-74
2021/04/25 11:16:21;;;;;;;19.98;11.93;;;21.30;36.20;;;;;;5051443;28;20510;-74
2021/04/25 11:18:52;;;;;;;20.35;11.45;;;21.30;36.20;;;;;;5051741;28;20060;-74
2021/04/25 11:21:31;;;;;;;16.17;13.05;;;20.50;37.60;;;;;;5050441;28;20021;-74
2021/04/25 11:23:58;;;;;;;22.40;12.98;;;21.00;37.10;;;;;;5033874;28;20377;-74
2021/04/25 11:29:13;;;;;;;19.02;12.05;;;21.90;35.20;;;;;;5051612;28;20021;-74
2021/04/25 11:34:25;;;;;;;19.40;12.43;;;21.00;36.90;;;;;;5055658;28;20087;-74
2021/04/25 11:36:56;;;;;;;19.17;13.05;;;20.80;37.30;;;;;;5054220;28;20029;-75
2021/04/25 11:39:27;;;;;;;22.02;13.23;;;20.60;37.80;;;;;;5054382;28;20029;-74
2021/04/25 11:41:54;;;;;;;20.83;12.45;;;20.30;38.90;;;;;;5054091;28;20027;-75
2021/04/25 11:44:30;;;;;;;18.52;12.13;;;20.90;37.70;;;;;;5055417;28;20021;-75
2021/04/25 11:46:57;;;;;;;17.75;12.30;;;20.90;36.90;;;;;;5054087;28;20025;-74
2021/04/25 11:49:30;;;;;;;19.45;12.30;;;20.70;37.20;;;;;;5055417;28;20021;-76
2021/04/25 11:52:09;;;;;;;18.35;12.65;;;21.30;37.10;;;;;;5054146;28;20021;-75
2021/04/25 11:54:35;;;;;;;21.95;12.50;;;21.60;36.20;;;;;;5055396;28;20032;-75
2021/04/25 11:57:10;;;;;;;29.88;12.85;;;21.20;37.20;;;;;;5055214;28;20037;-74
2021/04/25 11:59:37;;;;;;;20.48;12.35;;;21.50;36.60;;;;;;5055292;28;20496;-74
2021/04/25 12:02:06;;;;;;;23.90;13.07;;;21.50;36.50;;;;;;5055142;28;20025;-74
2021/04/25 12:04:48;;;;;;;22.08;12.25;;;21.30;36.90;;;;;;5055116;28;20444;-74
2021/04/25 12:07:40;;;;;;;17.33;11.50;;;20.80;37.50;;;;;;5054950;28;20027;-74
2021/04/25 12:10:17;;;;;;;20.45;11.65;;;20.50;37.90;;;;;;5055180;28;20112;-74
2021/04/25 12:13:21;;;;;;;26.60;12.95;;;20.80;37.20;;;;;;5053868;28;20017;-74
2021/04/25 12:15:50;;;;;;;20.75;12.40;;;21.00;37.10;;;;;;5054742;28;20362;-74
2021/04/25 12:18:23;;;;;;;27.42;18.58;;;21.30;37.20;;;;;;5054896;28;20029;-75
2021/04/25 12:20:51;;;;;;;17.80;11.38;;;20.70;37.10;;;;;;5054932;28;20024;-75
2021/04/25 12:23:22;;;;;;;19.58;10.07;;;20.70;37.20;;;;;;5054950;28;20024;-75
2021/04/25 12:25:49;;;;;;;21.77;11.82;;;20.70;37.40;;;;;;5053439;28;20543;-75
2021/04/25 12:28:17;;;;;;;25.27;11.68;;;20.90;37.50;;;;;;5053494;28;20040;-75
2021/04/25 12:30:45;;;;;;;16.40;10.85;;;20.60;37.10;;;;;;5053433;28;20060;-75
2021/04/25 12:33:16;;;;;;;20.52;10.45;;;20.60;38.10;;;;;;5054749;28;20032;-74
2021/04/25 12:35:51;;;;;;;20.90;12.05;;;20.50;38.20;;;;;;5054538;28;20025;-75
2021/04/25 12:38:20;;;;;;;17.38;10.95;;;20.20;38.50;;;;;;5054715;28;20025;-74
2021/04/25 12:41:10;;;;;;;18.45;10.85;;;20.20;38.60;;;;;;5053436;28;20045;-74
2021/04/25 12:43:50;;;;;;;19.95;11.15;;;20.00;38.30;;;;;;5053810;28;20025;-74
2021/04/25 12:46:24;;;;;;;16.63;10.27;;;19.90;38.60;;;;;;5054303;28;20365;-74
2021/04/25 12:48:53;;;;;;;17.17;10.73;;;19.90;39.20;;;;;;5054443;28;20361;-74